x

Bw Pioneer Buoy - Walker Ridge 249 (42360) Wave Buoy

4:00am - Wed 3rd Sep 2014 All times are UTC.

  • Sig Wave height 4.3ft
  • Peak Period 7s
  • Wind
    16mph, 20mph gusts
  • Sea Temp 87°f
  • Air Temp 85°f
  • Sea Pressure 1016.3mb

More Historic Weather Station data

Upgrade to MSW Pro to gain access to the past 30 days of data for over 8000 Wavebouys and Weather Stations around the globe.

Join Pro

Comparision Forecast

View Surf forecast
   
Wed 09/03 4:00am 4.5ft 7s 16 20 mph 1016.3mb 87f 85f
3:00am 4.5ft 7s 13 18 mph 1016mb 87f 85f
2:00am 4.5ft 6s 16 20 mph 1015mb 87f 85f
1:00am 4.5ft 7s 16 20 mph 1014.3mb 87f 85f
12:00am 4.5ft 7s 16 20 mph 1014.4mb 87f 85f
Tue 09/02 11:00pm 4.5ft 7s 16 20 mph 1014.2mb 87f 85f
10:00pm 4.5ft 6s 20 25 mph 1014.4mb 87f 85f
9:00pm 4.5ft 7s 20 27 mph 1014.5mb 87f 85f
8:00pm 4.5ft 6s 20 27 mph 1015.4mb 87f 85f
7:00pm 4.5ft 7s 20 27 mph 1016.1mb 87f 85f
6:00pm 4.5ft 7s 20 27 mph 1016.6mb 87f 85f
5:00pm 4.5ft 6s 22 27 mph 1017.2mb 87f 85f
4:00pm 4.5ft 7s 22 27 mph 1017.4mb 87f 85f
3:00pm 5ft 7s 22 27 mph 1017.4mb 87f 85f
2:00pm 5ft 7s 22 29 mph 1017mb 87f 85f
1:00pm 4.5ft 6s 22 29 mph 1016.4mb 87f 85f
12:00pm 5ft 7s 22 31 mph 1016.1mb 87f 85f
11:00am 5ft 7s 25 31 mph 1015.5mb 87f 85f
10:00am 5ft 7s 22 29 mph 1015.2mb 87f 85f
9:00am 5ft 8s 22 29 mph 1014.8mb 87f 85f
8:00am 5ft 8s 25 34 mph 1015.2mb 87f 85f
7:00am 5ft 8s 25 31 mph 1015.4mb 87f 85f
6:00am 5.5ft 7s 22 27 mph 1016.3mb 87f 85f
4:00am 5ft 7s 20 27 mph 1016.8mb 87f 85f
3:00am 5ft 7s 20 25 mph 1016.5mb 88f 85f
2:00am 5ft 6s 18 25 mph 1015.9mb 88f 85f
1:00am 4.5ft 7s 18 27 mph 1015.4mb 87f 85f
12:00am 5ft 7s 20 27 mph 1015mb 88f 85f
Mon 09/01 11:00pm 5ft 6s 20 27 mph 1014.9mb 88f 84f
10:00pm 5ft 6s 18 22 mph 1015mb 88f 82f
9:00pm 5ft 5s 25 31 mph 1015.5mb 88f 85f
8:00pm 4.5ft 6s 25 31 mph 1015.6mb 88f 84f
7:00pm 5ft 5s 11 16 mph 1016.8mb 88f 82f
6:00pm 4.5ft 6s 20 27 mph 1016.8mb 87f 84f
5:00pm 5ft 5s 22 29 mph 1017mb 87f 85f
4:00pm 5ft 6s 11 25 mph 1017.4mb 87f 84f
3:00pm 5ft 6s 11 18 mph 1016.9mb 87f 80f
2:00pm 5ft 6s 27 40 mph 1016mb 87f 82f
1:00pm 5ft 7s 22 29 mph 1015.6mb 87f 85f
12:00pm 5.5ft 6s 22 27 mph 1015.2mb 87f 85f
11:00am 5ft 6s 27 34 mph 1014.4mb 87f 84f
10:00am 5ft 7s 25 31 mph 1014.1mb 87f 84f
9:00am 5ft 6s 27 34 mph 1014.1mb 87f 85f
8:00am 5ft 6s 25 31 mph 1014.2mb 87f 84f
7:00am 4.5ft 6s 22 29 mph 1014.2mb 87f 84f
6:00am 5ft 6s 22 29 mph 1015mb 87f 84f
5:00am 5ft 6s 25 31 mph 1015.6mb 87f 85f
4:00am 4.5ft 6s 25 34 mph 1016mb 87f 85f
3:00am 5ft 6s 22 27 mph 1015.9mb 87f 84f
2:00am 4.5ft 5s 27 31 mph 1015.8mb 87f 84f
1:00am 4.5ft 6s 22 29 mph 1015.5mb 87f 84f
12:00am 4.5ft 6s 22 29 mph 1015.3mb 87f 84f
Sun 08/31 10:00pm 4.5ft 6s 31 45 mph 1015.2mb 87f 81f
9:00pm 4.5ft 7s 25 36 mph 1015.2mb 88f 85f
8:00pm 4.5ft 6s 20 27 mph 1015.5mb 88f 86f
7:00pm 4.5ft 6s 20 25 mph 1016.1mb 87f 86f
6:00pm 5ft 7s 22 27 mph 1016.5mb 87f 85f
5:00pm 4.5ft 7s 22 29 mph 1017.1mb 87f 86f
4:00pm 5ft 7s 22 29 mph 1017mb 87f 86f
3:00pm 5ft 6s 20 25 mph 1017.1mb 87f 86f
2:00pm 5ft 6s 22 29 mph 1016.6mb - 85f
1:00pm 5ft 7s 22 43 mph 1016.1mb 87f 85f
12:00pm 5ft 7s 22 31 mph 1015.8mb 87f 85f
11:00am 4.5ft 7s 22 29 mph 1015.4mb 87f 86f
10:00am 4.5ft 7s 25 29 mph 1015.3mb 87f 86f
9:00am 4.5ft 6s 22 29 mph 1015mb 87f 85f
8:00am 4ft 6s 25 31 mph 1015.2mb 87f 86f
7:00am 4ft 6s 18 27 mph 1016.1mb 87f 85f
6:00am 4.5ft 7s 20 25 mph 1016.4mb 87f 86f
5:00am 3.5ft 6s 13 18 mph 1016.8mb 87f 86f
4:00am 4ft 6s 16 20 mph 1017.2mb 87f 86f
3:00am 4.5ft 7s 11 13 mph 1017.1mb 87f 86f
2:00am 4.5ft 7s 13 16 mph 1016.6mb - 86f
Sat 08/30 10:00pm 5ft 7s 18 22 mph 1015.2mb 88f 86f
9:00pm 5ft 7s 22 27 mph 1015.3mb 88f 86f
8:00pm 5ft 7s 18 25 mph 1015.8mb 88f 86f
7:00pm 5ft 6s 20 27 mph 1016.3mb 87f 86f
6:00pm 5.5ft 6s 20 25 mph 1016.8mb 87f 86f
5:00pm 5.5ft 6s 25 31 mph 1016.9mb 87f 86f
4:00pm 5.5ft 7s 25 31 mph 1016.5mb 87f 86f
3:00pm 6.5ft 7s 25 34 mph 1016.3mb 87f 86f
2:00pm 6ft 7s 29 38 mph 1015.6mb 87f 86f
1:00pm 6.5ft 7s 25 34 mph 1015.2mb 87f 86f
12:00pm 6ft 7s 29 40 mph 1014.5mb 87f 86f
11:00am 5ft 7s 29 38 mph 1014.4mb 87f 85f
10:00am 6ft 7s 27 36 mph 1014.5mb 87f 85f
9:00am 5ft 7s 29 38 mph 1014.4mb 87f 85f
8:00am 5.5ft 7s 29 36 mph 1014.7mb 87f 85f
7:00am 5ft 7s 27 34 mph 1014.7mb 87f 85f
6:00am 5ft 7s 25 29 mph 1015mb 87f 85f